EHAM/AMS METAR and TAF weather

Enter ICAO airport designator
Station Type Date Time Source
EHAM METAR 2020/07/04 02:55 UTC NOAA

EHAM 040255Z 20014KT 170V230 9999 -DZ SCT013 BKN018 15/13 Q1013 NOSIG


Station Type Date Time Source
EHAM Decoded METAR 2020/07/04 02:55 UTC NOAA

Amsterdam Airport Schiphol, Netherlands (EHAM) 52-18N 004-46E -2M
Jul 03, 2020 - 10:55 PM EDT / 2020.07.04 0255 UTC
Wind: from the SSW (200 degrees) at 16 MPH (14 KT) (direction variable):0
Visibility: greater than 7 mile(s):0
Sky conditions: mostly cloudy
Weather: light drizzle
Temperature: 59 F (15 C)
Dew Point: 55 F (13 C)
Relative Humidity: 87%
Pressure (altimeter): 29.91 in. Hg (1013 hPa)
ob: EHAM 040255Z 20014KT 170V230 9999 -DZ SCT013 BKN018 15/13 Q1013 NOSIG
cycle: 3

Station Type Date Time Source
EHAM TAF 2020/07/03 18:27 UTC NOAA

TAF TAF EHAM 031707Z 0318/0424 23020G30KT 9999 BKN025
BECMG 0318/0321 23015G25KT
BECMG 0323/0402 7000 -RADZ BKN018
BECMG 0409/0412 23020G30KT 9999 NSW BKN012
TEMPO 0409/0424 4500 -DZ SCT005 BKN008

Example: see airport list